createdAt,value
2018-05-03T00:02:01.665Z,3.13
2018-05-03T00:04:30.387Z,3.10
2018-05-03T00:06:58.704Z,3.33
2018-05-03T00:09:27.294Z,3.00
2018-05-03T00:11:55.902Z,3.30
2018-05-03T00:14:24.575Z,3.13
2018-05-03T00:16:53.913Z,3.43
2018-05-03T00:19:22.541Z,3.30
2018-05-03T00:21:51.146Z,3.40
2018-05-03T00:24:19.773Z,3.10
2018-05-03T00:26:52.002Z,3.20
2018-05-03T00:29:20.596Z,3.50
2018-05-03T00:31:49.984Z,3.30
2018-05-03T00:34:18.620Z,3.07
2018-05-03T00:36:47.269Z,3.23
2018-05-03T00:39:15.840Z,2.87
2018-05-03T00:41:44.486Z,3.10
2018-05-03T00:44:13.092Z,3.67
2018-05-03T00:46:41.716Z,3.20
2018-05-03T00:49:10.344Z,3.53
2018-05-03T00:51:38.963Z,3.43
2018-05-03T00:57:09.983Z,3.30
2018-05-03T00:59:38.556Z,2.93
2018-05-03T01:02:07.150Z,3.27
2018-05-03T01:04:35.387Z,3.57
2018-05-03T01:07:03.970Z,3.23
2018-05-03T01:09:32.515Z,3.07
2018-05-03T01:12:01.091Z,3.10
2018-05-03T01:14:29.677Z,3.60
2018-05-03T01:16:58.233Z,3.13
2018-05-03T01:19:26.863Z,3.10
2018-05-03T01:21:55.394Z,3.10
2018-05-03T01:24:23.961Z,3.30
2018-05-03T01:26:52.529Z,3.00
2018-05-03T01:29:21.075Z,3.83
2018-05-03T01:31:49.652Z,4.10
2018-05-03T01:34:18.973Z,4.07
2018-05-03T01:36:47.262Z,3.80
2018-05-03T01:39:15.865Z,3.33
2018-05-03T01:41:44.496Z,3.50
2018-05-03T01:44:13.111Z,3.70
2018-05-03T01:46:41.703Z,3.60
2018-05-03T01:49:10.366Z,3.90
2018-05-03T01:51:38.971Z,4.47
2018-05-03T01:54:08.359Z,4.47
2018-05-03T01:56:37.006Z,4.70
2018-05-03T01:59:05.639Z,4.47
2018-05-03T02:01:34.116Z,4.50
2018-05-03T02:04:02.743Z,4.60
2018-05-03T02:06:31.376Z,4.50
2018-05-03T02:09:00.078Z,5.30
2018-05-03T02:11:29.468Z,4.57
2018-05-03T02:13:58.112Z,4.17
2018-05-03T02:16:26.746Z,4.63
2018-05-03T02:18:55.379Z,4.10
2018-05-03T02:21:24.072Z,4.10
2018-05-03T02:23:53.441Z,3.97
2018-05-03T02:26:22.819Z,3.93
2018-05-03T02:28:51.449Z,4.10
2018-05-03T02:31:20.096Z,4.07
2018-05-03T02:33:48.712Z,3.90
2018-05-03T02:36:18.116Z,3.60
2018-05-03T02:38:47.528Z,3.80
2018-05-03T02:41:16.179Z,3.70
2018-05-03T02:43:44.855Z,4.00
2018-05-03T02:46:13.528Z,3.90
2018-05-03T02:48:42.176Z,3.60
2018-05-03T02:51:11.666Z,3.50
2018-05-03T02:53:40.423Z,4.13
2018-05-03T02:56:09.063Z,3.57
2018-05-03T02:58:49.611Z,4.03
2018-05-03T03:01:35.032Z,4.80
2018-05-03T03:04:20.360Z,4.73
2018-05-03T03:10:30.553Z,4.65
2018-05-03T03:16:47.975Z,4.83
2018-05-03T03:19:35.287Z,5.63
2018-05-03T03:22:20.579Z,6.30
2018-05-03T03:28:15.010Z,4.77
2018-05-03T03:31:00.144Z,4.93
2018-05-03T03:37:04.662Z,4.10
2018-05-03T03:39:44.293Z,4.20
2018-05-03T03:42:24.185Z,4.67
2018-05-03T03:44:53.506Z,4.00
2018-05-03T03:47:22.110Z,3.67
2018-05-03T03:49:50.630Z,3.60
2018-05-03T03:52:19.190Z,3.63
2018-05-03T03:54:47.439Z,3.83
2018-05-03T03:57:16.012Z,3.27
2018-05-03T03:59:44.430Z,3.30
2018-05-03T04:02:12.981Z,3.90
2018-05-03T04:04:41.550Z,3.40
2018-05-03T04:07:10.852Z,3.50
2018-05-03T04:09:40.183Z,3.60
2018-05-03T04:12:08.746Z,3.50
2018-05-03T04:14:38.269Z,3.33
2018-05-03T04:17:06.830Z,3.73
2018-05-03T04:19:46.663Z,3.53
2018-05-03T04:22:26.337Z,3.60
2018-05-03T04:25:06.308Z,3.70
2018-05-03T04:27:35.072Z,4.40
2018-05-03T04:30:03.609Z,4.80
2018-05-03T04:32:32.199Z,4.43
2018-05-03T04:35:00.757Z,5.40
2018-05-03T04:37:29.295Z,4.33
2018-05-03T04:39:57.875Z,4.73
2018-05-03T04:42:26.439Z,5.23
2018-05-03T04:44:55.008Z,6.23
2018-05-03T04:47:23.602Z,5.80
2018-05-03T04:49:52.159Z,5.00
2018-05-03T04:52:21.310Z,4.90
2018-05-03T04:54:49.835Z,5.67
2018-05-03T04:57:19.152Z,5.93
2018-05-03T04:59:47.721Z,5.40
2018-05-03T05:02:17.019Z,5.63
2018-05-03T05:04:45.676Z,5.00
2018-05-03T05:07:14.330Z,5.20
2018-05-03T05:09:42.885Z,4.60
2018-05-03T05:12:12.222Z,4.47
2018-05-03T05:14:40.760Z,5.00
2018-05-03T05:17:09.320Z,4.93
2018-05-03T05:19:37.857Z,4.80
2018-05-03T05:22:07.175Z,4.80
2018-05-03T05:24:35.733Z,4.43
2018-05-03T05:27:04.259Z,4.30
2018-05-03T05:29:32.827Z,5.30
2018-05-03T05:32:01.080Z,4.60
2018-05-03T05:34:30.614Z,4.60
2018-05-03T05:36:59.186Z,4.97
2018-05-03T05:39:28.807Z,4.60
2018-05-03T05:41:57.382Z,4.83
2018-05-03T05:44:26.067Z,5.10
2018-05-03T05:46:54.687Z,4.63
2018-05-03T05:49:23.335Z,5.20
2018-05-03T05:51:52.730Z,4.93
2018-05-03T05:54:21.371Z,4.57
2018-05-03T05:56:50.034Z,5.50
2018-05-03T05:59:18.512Z,5.63
2018-05-03T06:01:47.270Z,5.17
2018-05-03T06:04:15.950Z,4.87
2018-05-03T06:06:44.889Z,4.63
2018-05-03T06:09:13.512Z,6.87
2018-05-03T06:11:42.188Z,4.90
2018-05-03T06:14:10.831Z,6.03
2018-05-03T06:16:40.217Z,5.40
2018-05-03T06:19:08.904Z,4.80
2018-05-03T06:21:37.527Z,4.40
2018-05-03T06:24:06.986Z,5.10
2018-05-03T06:26:35.616Z,5.13
2018-05-03T06:29:05.010Z,4.80
2018-05-03T06:31:33.662Z,5.07
2018-05-03T06:34:02.277Z,6.60
2018-05-03T06:36:30.927Z,9.13
2018-05-03T06:38:59.626Z,8.73
2018-05-03T06:41:28.418Z,6.23
2018-05-03T06:43:57.044Z,6.17
2018-05-03T06:46:26.427Z,6.00
2018-05-03T06:48:55.093Z,5.73
2018-05-03T06:51:23.816Z,5.93
2018-05-03T06:53:52.567Z,5.87
2018-05-03T06:56:21.205Z,5.33
2018-05-03T06:58:50.576Z,5.70
2018-05-03T07:01:19.214Z,6.10
2018-05-03T07:03:47.896Z,5.33
2018-05-03T07:06:16.550Z,5.50
2018-05-03T07:08:45.191Z,4.93
2018-05-03T07:11:13.841Z,5.90
2018-05-03T07:13:43.265Z,4.70
2018-05-03T07:16:11.903Z,5.07
2018-05-03T07:18:40.558Z,5.47
2018-05-03T07:21:13.570Z,5.03
2018-05-03T07:23:42.302Z,5.40
2018-05-03T07:26:11.735Z,4.80
2018-05-03T07:28:46.246Z,5.53
2018-05-03T07:31:14.749Z,4.87
2018-05-03T07:33:43.499Z,4.47
2018-05-03T07:36:12.086Z,4.67
2018-05-03T07:38:40.743Z,4.43
2018-05-03T07:41:09.355Z,4.30
2018-05-03T07:43:37.974Z,13.83
2018-05-03T07:46:07.416Z,10.57
2018-05-03T07:48:36.040Z,7.90
2018-05-03T07:51:04.648Z,5.67
2018-05-03T07:53:34.007Z,4.90
2018-05-03T07:56:02.655Z,4.67
2018-05-03T07:58:37.869Z,4.50
2018-05-03T08:01:07.305Z,4.07
2018-05-03T08:03:35.951Z,4.23
2018-05-03T08:06:04.571Z,4.30
2018-05-03T08:08:33.218Z,4.10
2018-05-03T08:11:01.871Z,3.80
2018-05-03T08:13:30.533Z,4.60
2018-05-03T08:15:59.207Z,5.40
2018-05-03T08:18:28.409Z,4.70
2018-05-03T08:20:57.944Z,4.50
2018-05-03T08:23:26.620Z,4.97
2018-05-03T08:25:55.281Z,4.43
2018-05-03T08:28:23.932Z,4.23
2018-05-03T08:30:52.560Z,4.70
2018-05-03T08:33:21.163Z,4.67
2018-05-03T08:35:50.559Z,4.43
2018-05-03T08:38:19.948Z,4.30
2018-05-03T08:40:48.621Z,4.93
2018-05-03T08:43:17.239Z,4.00
2018-05-03T08:45:45.916Z,4.30
2018-05-03T08:48:15.298Z,5.03
2018-05-03T08:50:43.941Z,4.87
2018-05-03T08:53:12.594Z,5.10
2018-05-03T08:55:41.228Z,4.57
2018-05-03T08:58:19.679Z,4.77
2018-05-03T09:00:48.312Z,5.10
2018-05-03T09:03:17.836Z,4.60
2018-05-03T09:05:46.469Z,4.30
2018-05-03T09:08:15.091Z,4.53
2018-05-03T09:10:44.525Z,4.53
2018-05-03T09:13:13.210Z,4.17
2018-05-03T09:15:41.865Z,5.43
2018-05-03T09:18:11.358Z,5.53
2018-05-03T09:20:39.697Z,6.77
2018-05-03T09:23:08.335Z,6.53
2018-05-03T09:25:36.997Z,6.53
2018-05-03T09:28:05.688Z,7.97
2018-05-03T09:30:34.344Z,7.83
2018-05-03T09:33:02.969Z,8.33
2018-05-03T09:35:31.612Z,8.37
2018-05-03T09:38:00.251Z,7.97
2018-05-03T09:40:28.870Z,8.00
2018-05-03T09:42:57.502Z,8.60
2018-05-03T09:45:26.105Z,9.03
2018-05-03T09:47:55.063Z,9.57
2018-05-03T09:50:23.669Z,8.10
2018-05-03T09:52:52.311Z,9.47
2018-05-03T09:55:20.952Z,9.77
2018-05-03T09:57:54.258Z,10.67
2018-05-03T10:00:22.909Z,11.20
2018-05-03T10:02:51.516Z,10.77
2018-05-03T10:05:20.238Z,11.63
2018-05-03T10:07:50.243Z,11.27
2018-05-03T10:10:19.020Z,11.13
2018-05-03T10:12:47.678Z,11.17
2018-05-03T10:15:16.424Z,11.30
2018-05-03T10:17:45.845Z,12.00
2018-05-03T10:20:15.024Z,10.80
2018-05-03T10:22:43.467Z,10.70
2018-05-03T10:25:12.137Z,11.07
2018-05-03T10:27:40.741Z,10.43
2018-05-03T10:30:09.417Z,9.87
2018-05-03T10:32:38.030Z,9.83
2018-05-03T10:35:07.731Z,9.50
2018-05-03T10:37:37.360Z,9.97
2018-05-03T10:40:07.004Z,10.90
2018-05-03T10:42:36.667Z,10.00
2018-05-03T10:45:06.370Z,10.70
2018-05-03T10:47:34.786Z,10.33
2018-05-03T10:50:03.393Z,9.23
2018-05-03T10:52:32.763Z,9.70
2018-05-03T10:55:01.393Z,10.63
2018-05-03T10:57:30.077Z,10.10
2018-05-03T10:59:59.368Z,8.97
2018-05-03T11:02:28.008Z,10.13
2018-05-03T11:04:56.672Z,9.20
2018-05-03T11:07:25.335Z,7.97
2018-05-03T11:09:54.007Z,8.87
2018-05-03T11:12:22.684Z,9.30
2018-05-03T11:14:51.295Z,7.83
2018-05-03T11:17:22.015Z,7.93
2018-05-03T11:19:50.651Z,7.73
2018-05-03T11:22:19.291Z,8.30
2018-05-03T11:24:47.939Z,8.27
2018-05-03T11:27:16.668Z,7.73
2018-05-03T11:29:45.385Z,8.10
2018-05-03T11:32:14.803Z,7.97
2018-05-03T11:34:44.182Z,7.37
2018-05-03T11:37:12.922Z,7.80
2018-05-03T11:39:41.580Z,7.37
2018-05-03T11:42:10.179Z,6.73
2018-05-03T11:44:38.846Z,7.20
2018-05-03T11:47:08.325Z,6.83
2018-05-03T11:49:36.991Z,7.07
2018-05-03T11:52:05.618Z,7.63
2018-05-03T11:54:34.376Z,6.77
2018-05-03T11:57:02.991Z,6.93
2018-05-03T11:59:31.705Z,6.80
2018-05-03T12:02:01.230Z,6.80
2018-05-03T12:04:29.828Z,7.17
2018-05-03T12:06:58.790Z,6.23
2018-05-03T12:09:27.451Z,6.50
2018-05-03T12:11:56.128Z,6.57
2018-05-03T12:14:24.768Z,5.83
2018-05-03T12:16:53.428Z,5.47
2018-05-03T12:19:22.817Z,4.43
2018-05-03T12:21:51.522Z,5.73
2018-05-03T12:24:21.292Z,5.13
2018-05-03T12:26:50.842Z,4.50
2018-05-03T12:29:19.586Z,4.93
2018-05-03T12:31:48.296Z,3.87
2018-05-03T12:34:16.906Z,4.67
2018-05-03T12:36:46.502Z,4.37
2018-05-03T12:39:21.082Z,3.63
2018-05-03T12:41:49.728Z,4.07
2018-05-03T12:44:19.544Z,3.77
2018-05-03T12:46:49.153Z,3.67
2018-05-03T12:49:18.758Z,3.57
2018-05-03T12:51:48.442Z,4.53
2018-05-03T12:54:18.237Z,3.90
2018-05-03T12:56:47.864Z,3.30
2018-05-03T12:59:17.505Z,2.80
2018-05-03T13:01:47.102Z,3.23
2018-05-03T13:04:15.740Z,3.60
2018-05-03T13:06:45.499Z,4.00
2018-05-03T13:09:14.147Z,3.53
2018-05-03T13:11:42.762Z,4.10
2018-05-03T13:14:11.355Z,2.90
2018-05-03T13:16:40.448Z,3.93
2018-05-03T13:19:09.073Z,4.40
2018-05-03T13:21:37.707Z,4.13
2018-05-03T13:24:06.521Z,3.17
2018-05-03T13:26:35.122Z,3.60
2018-05-03T13:29:03.834Z,3.60
2018-05-03T13:31:32.476Z,3.63
2018-05-03T13:34:01.876Z,3.47
2018-05-03T13:36:30.497Z,3.00
2018-05-03T13:38:59.126Z,3.03
2018-05-03T13:41:27.641Z,3.10
2018-05-03T13:43:57.273Z,2.80
2018-05-03T13:46:25.900Z,2.70
2018-05-03T13:48:54.506Z,3.10
2018-05-03T13:51:23.221Z,3.10
2018-05-03T13:53:53.001Z,2.23
2018-05-03T13:56:21.611Z,2.50
2018-05-03T13:58:50.482Z,2.27
2018-05-03T14:01:19.166Z,2.23
2018-05-03T14:03:47.788Z,2.80
2018-05-03T14:06:16.462Z,2.80
2018-05-03T14:08:45.099Z,2.83
2018-05-03T14:11:14.545Z,3.13
2018-05-03T14:13:43.116Z,3.00
2018-05-03T14:16:11.797Z,2.80
2018-05-03T14:18:40.473Z,2.50
2018-05-03T14:21:09.967Z,2.90
2018-05-03T14:23:39.497Z,3.40
2018-05-03T14:26:08.118Z,3.03
2018-05-03T14:28:36.731Z,2.80
2018-05-03T14:31:05.382Z,2.40
2018-05-03T14:36:33.118Z,3.20
2018-05-03T14:39:05.171Z,2.90
2018-05-03T14:41:33.793Z,3.60
2018-05-03T14:44:02.426Z,3.37
2018-05-03T14:46:31.080Z,3.47
2018-05-03T14:48:59.728Z,3.30
2018-05-03T14:51:28.363Z,3.17
2018-05-03T14:53:57.785Z,2.67
2018-05-03T14:56:26.396Z,2.57
2018-05-03T14:58:55.014Z,3.60
2018-05-03T15:01:23.633Z,2.80
2018-05-03T15:03:52.277Z,3.03
2018-05-03T15:06:20.937Z,2.80
2018-05-03T15:08:49.575Z,3.53
2018-05-03T15:11:18.271Z,3.00
2018-05-03T15:13:46.843Z,2.90
2018-05-03T15:16:15.520Z,2.77
2018-05-03T15:18:44.306Z,3.37
2018-05-03T15:21:12.898Z,3.33
2018-05-03T15:23:41.585Z,2.93
2018-05-03T15:26:10.255Z,3.30
2018-05-03T15:28:38.896Z,3.23
2018-05-03T15:31:07.561Z,3.43
2018-05-03T15:33:36.148Z,2.77
2018-05-03T15:36:04.749Z,3.50
2018-05-03T15:38:34.133Z,3.57
2018-05-03T15:41:02.785Z,3.03
2018-05-03T15:43:31.522Z,3.87
2018-05-03T15:46:00.187Z,3.53
2018-05-03T15:48:28.870Z,3.53
2018-05-03T15:50:57.477Z,3.13
2018-05-03T15:53:26.099Z,4.10
2018-05-03T15:55:54.732Z,3.60
2018-05-03T15:58:23.352Z,2.90
2018-05-03T16:00:52.026Z,4.73
2018-05-03T16:03:20.475Z,3.30
2018-05-03T16:05:49.130Z,3.70
2018-05-03T16:08:17.786Z,3.40
2018-05-03T16:10:47.222Z,3.50
2018-05-03T16:13:15.875Z,3.73
2018-05-03T16:15:44.518Z,3.70
2018-05-03T16:18:13.157Z,3.50
2018-05-03T16:20:41.887Z,3.77
2018-05-03T16:23:10.500Z,3.80
2018-05-03T16:25:39.168Z,3.27
2018-05-03T16:28:07.793Z,3.37
2018-05-03T16:30:36.408Z,4.20
2018-05-03T16:33:05.836Z,4.50
2018-05-03T16:35:34.464Z,4.00
2018-05-03T16:38:03.174Z,2.73
2018-05-03T16:40:31.778Z,3.50
2018-05-03T16:43:01.186Z,3.50
2018-05-03T16:45:30.633Z,3.60
2018-05-03T16:47:59.262Z,3.23
2018-05-03T16:50:27.930Z,3.23
2018-05-03T16:52:56.520Z,3.47
2018-05-03T16:55:25.225Z,3.40
2018-05-03T16:57:53.879Z,3.30
2018-05-03T17:00:23.476Z,3.40
2018-05-03T17:02:52.204Z,3.20
2018-05-03T17:05:20.247Z,2.90
2018-05-03T17:07:48.909Z,2.90
2018-05-03T17:10:17.651Z,3.17
2018-05-03T17:12:46.304Z,2.80
2018-05-03T17:15:14.984Z,3.00
2018-05-03T17:17:43.496Z,3.30
2018-05-03T17:20:12.522Z,3.47
2018-05-03T17:22:41.344Z,2.90
2018-05-03T17:25:09.940Z,4.00
2018-05-03T17:27:38.582Z,3.70
2018-05-03T17:30:07.627Z,3.53
2018-05-03T17:32:37.424Z,3.77
2018-05-03T17:35:06.057Z,4.47
2018-05-03T17:37:34.672Z,3.70
2018-05-03T17:40:03.394Z,3.20
2018-05-03T17:42:32.023Z,3.40
2018-05-03T17:45:00.652Z,3.57
2018-05-03T17:47:30.113Z,3.50
2018-05-03T17:49:58.745Z,3.40
2018-05-03T17:52:27.414Z,3.80
2018-05-03T17:54:56.536Z,3.80
2018-05-03T17:57:26.219Z,3.30
2018-05-03T17:59:54.813Z,3.20
2018-05-03T18:02:24.265Z,3.40
2018-05-03T18:04:52.868Z,2.70
2018-05-03T18:07:21.497Z,2.97
2018-05-03T18:09:50.141Z,2.90
2018-05-03T18:12:20.863Z,3.30
2018-05-03T18:14:49.474Z,3.30
2018-05-03T18:17:18.081Z,3.20
2018-05-03T18:19:46.716Z,3.40
2018-05-03T18:22:18.958Z,3.00
2018-05-03T18:24:48.380Z,2.80
2018-05-03T18:27:17.069Z,2.90
2018-05-03T18:29:45.494Z,2.70
2018-05-03T18:32:14.142Z,3.00
2018-05-03T18:34:44.910Z,2.60
2018-05-03T18:37:13.579Z,3.43
2018-05-03T18:39:42.216Z,3.10
2018-05-03T18:42:10.861Z,2.90
2018-05-03T18:44:39.531Z,2.90
2018-05-03T18:47:08.127Z,3.47
2018-05-03T18:49:36.943Z,3.80
2018-05-03T18:52:06.524Z,3.60
2018-05-03T18:54:34.953Z,3.00
2018-05-03T18:57:05.396Z,3.30
2018-05-03T18:59:34.012Z,3.10
2018-05-03T19:04:51.413Z,2.70
2018-05-03T19:07:20.090Z,2.47
2018-05-03T19:09:48.694Z,2.30
2018-05-03T19:12:17.313Z,2.43
2018-05-03T19:14:46.691Z,2.40
2018-05-03T19:17:15.299Z,2.60
2018-05-03T19:19:44.732Z,2.43
2018-05-03T19:22:13.373Z,1.87
2018-05-03T19:24:41.975Z,2.47
2018-05-03T19:27:10.621Z,2.80
2018-05-03T19:29:39.226Z,2.37
2018-05-03T19:32:07.875Z,2.33
2018-05-03T19:34:36.522Z,2.17
2018-05-03T19:37:05.133Z,2.47
2018-05-03T19:39:33.770Z,2.23
2018-05-03T19:42:03.392Z,2.40
2018-05-03T19:44:32.104Z,2.30
2018-05-03T19:47:01.551Z,2.50
2018-05-03T19:49:30.201Z,2.60
2018-05-03T19:51:59.617Z,2.40
2018-05-03T19:54:28.274Z,2.80
2018-05-03T19:56:56.984Z,2.93
2018-05-03T19:59:25.646Z,2.60
2018-05-03T20:01:54.309Z,2.70
2018-05-03T20:04:23.142Z,3.03
2018-05-03T20:06:52.232Z,2.97
2018-05-03T20:09:21.054Z,2.70
2018-05-03T20:11:50.407Z,2.80
2018-05-03T20:14:19.033Z,3.27
2018-05-03T20:16:48.440Z,3.03
2018-05-03T20:19:17.904Z,2.47
2018-05-03T20:21:46.596Z,2.60
2018-05-03T20:24:15.311Z,2.57
2018-05-03T20:26:44.095Z,2.13
2018-05-03T20:29:12.791Z,2.13
2018-05-03T20:31:42.203Z,2.20
2018-05-03T20:34:11.709Z,2.77
2018-05-03T20:36:40.411Z,2.57
2018-05-03T20:39:09.836Z,2.90
2018-05-03T20:41:38.527Z,2.70
2018-05-03T20:44:07.135Z,2.40
2018-05-03T20:46:35.863Z,2.70
2018-05-03T20:49:09.904Z,2.10
2018-05-03T20:51:38.746Z,2.63
2018-05-03T20:54:07.552Z,2.43
2018-05-03T20:56:36.294Z,2.50
2018-05-03T20:59:05.388Z,2.47
2018-05-03T21:01:35.458Z,2.80
2018-05-03T21:04:04.154Z,2.37
2018-05-03T21:06:32.939Z,2.50
2018-05-03T21:09:01.628Z,2.30
2018-05-03T21:11:30.303Z,2.93
2018-05-03T21:13:58.740Z,2.80
2018-05-03T21:16:27.680Z,2.90
2018-05-03T21:18:56.380Z,2.40
2018-05-03T21:21:33.459Z,2.83
2018-05-03T21:24:02.103Z,3.33
2018-05-03T21:26:30.768Z,2.50
2018-05-03T21:29:00.149Z,2.73
2018-05-03T21:31:28.762Z,2.40
2018-05-03T21:33:57.367Z,2.67
2018-05-03T21:36:25.838Z,2.40
2018-05-03T21:38:54.440Z,2.40
2018-05-03T21:41:23.054Z,2.63
2018-05-03T21:43:51.687Z,2.80
2018-05-03T21:46:21.118Z,2.33
2018-05-03T21:48:49.844Z,2.43
2018-05-03T21:51:18.455Z,2.60
2018-05-03T21:53:47.072Z,2.30
2018-05-03T21:56:15.691Z,2.60
2018-05-03T21:58:44.398Z,2.47
2018-05-03T22:01:13.049Z,2.20
2018-05-03T22:03:41.656Z,2.63
2018-05-03T22:06:11.067Z,2.10
2018-05-03T22:08:39.671Z,2.50
2018-05-03T22:11:08.335Z,2.00
2018-05-03T22:13:37.001Z,2.50
2018-05-03T22:16:05.635Z,2.30
2018-05-03T22:18:34.339Z,2.33
2018-05-03T22:21:03.745Z,2.30
2018-05-03T22:23:32.449Z,2.70
2018-05-03T22:26:01.104Z,2.20
2018-05-03T22:28:29.709Z,2.40
2018-05-03T22:30:58.347Z,2.30
2018-05-03T22:33:26.972Z,2.67
2018-05-03T22:35:55.610Z,2.07
2018-05-03T22:38:24.323Z,2.10
2018-05-03T22:40:53.128Z,2.67
2018-05-03T22:43:21.934Z,2.13
2018-05-03T22:45:50.555Z,2.40
2018-05-03T22:48:19.212Z,2.20
2018-05-03T22:50:47.851Z,2.30
2018-05-03T22:53:16.456Z,2.30
2018-05-03T22:55:45.118Z,2.40
2018-05-03T22:58:13.713Z,2.20
2018-05-03T23:00:42.369Z,2.57
2018-05-03T23:03:11.792Z,2.33
2018-05-03T23:05:40.391Z,2.87
2018-05-03T23:08:09.045Z,2.30
2018-05-03T23:10:38.539Z,2.10
2018-05-03T23:13:07.168Z,2.10
2018-05-03T23:15:35.805Z,2.00
2018-05-03T23:18:04.398Z,2.13
2018-05-03T23:20:33.090Z,2.10
2018-05-03T23:23:01.798Z,2.20
2018-05-03T23:25:30.439Z,2.43
2018-05-03T23:27:59.070Z,2.23
2018-05-03T23:30:27.768Z,2.33
2018-05-03T23:32:56.513Z,2.67
2018-05-03T23:35:25.115Z,2.00
2018-05-03T23:37:53.734Z,2.63
2018-05-03T23:40:22.391Z,2.60
2018-05-03T23:42:51.004Z,1.97
2018-05-03T23:45:20.408Z,2.13
2018-05-03T23:47:49.002Z,2.37
2018-05-03T23:50:17.685Z,2.47
2018-05-03T23:52:46.426Z,2.40
2018-05-03T23:55:15.059Z,2.50
2018-05-03T23:57:43.710Z,2.50
